Flugplatz Diepholz Airport

Prognose für ETND

vom 23.05. um 13:00 UTC

Zwischen 11:00 UTC und 20:00 UTC

Wind 5 kt aus 210°

Sichtweite 10 km oder mehr

keine signifikanten Wettererscheinungen

gering bewölkt in 7000 ft

aufgebrochene Bewölkung in 30000 ft

TAF AMD ETND 231300Z 2311/2320 21005KT 9999 NSW FEW070 BKN300 CANCEL 1330 BY ETGL
Impressum